sensor_id;sensor_type;location;lat;lon;timestamp;P1;durP1;ratioP1;P2;durP2;ratioP2
58137;SDS011;43955;47.362;18.930;2023-11-19T00:00:19;10.38;;;4.85;;
58137;SDS011;43955;47.362;18.930;2023-11-19T00:02:47;9.82;;;4.25;;
58137;SDS011;43955;47.362;18.930;2023-11-19T00:05:14;8.70;;;4.45;;
58137;SDS011;43955;47.362;18.930;2023-11-19T00:07:44;12.73;;;6.78;;
58137;SDS011;43955;47.362;18.930;2023-11-19T00:10:12;11.43;;;5.22;;
58137;SDS011;43955;47.362;18.930;2023-11-19T00:12:41;10.75;;;5.55;;
58137;SDS011;43955;47.362;18.930;2023-11-19T00:15:12;9.65;;;5.18;;
58137;SDS011;43955;47.362;18.930;2023-11-19T00:17:41;13.20;;;5.07;;
58137;SDS011;43955;47.362;18.930;2023-11-19T00:20:13;12.02;;;4.78;;
58137;SDS011;43955;47.362;18.930;2023-11-19T00:22:42;8.85;;;4.78;;
58137;SDS011;43955;47.362;18.930;2023-11-19T00:25:13;9.65;;;4.37;;
58137;SDS011;43955;47.362;18.930;2023-11-19T00:27:41;8.43;;;5.30;;
58137;SDS011;43955;47.362;18.930;2023-11-19T00:30:12;10.77;;;5.22;;
58137;SDS011;43955;47.362;18.930;2023-11-19T00:32:42;9.70;;;5.03;;
58137;SDS011;43955;47.362;18.930;2023-11-19T00:35:10;9.20;;;5.35;;
58137;SDS011;43955;47.362;18.930;2023-11-19T00:37:38;9.95;;;4.90;;
58137;SDS011;43955;47.362;18.930;2023-11-19T00:40:07;9.10;;;5.45;;
58137;SDS011;43955;47.362;18.930;2023-11-19T00:42:38;12.57;;;5.40;;
58137;SDS011;43955;47.362;18.930;2023-11-19T00:45:05;8.85;;;4.80;;
58137;SDS011;43955;47.362;18.930;2023-11-19T00:47:38;7.05;;;4.30;;
58137;SDS011;43955;47.362;18.930;2023-11-19T00:50:06;9.20;;;4.53;;
58137;SDS011;43955;47.362;18.930;2023-11-19T00:52:46;10.30;;;5.15;;
58137;SDS011;43955;47.362;18.930;2023-11-19T00:55:14;15.20;;;5.30;;
58137;SDS011;43955;47.362;18.930;2023-11-19T00:57:42;22.23;;;7.97;;
58137;SDS011;43955;47.362;18.930;2023-11-19T01:00:10;13.07;;;7.37;;
58137;SDS011;43955;47.362;18.930;2023-11-19T01:02:49;9.73;;;6.43;;
58137;SDS011;43955;47.362;18.930;2023-11-19T01:05:19;108.37;;;28.17;;
58137;SDS011;43955;47.362;18.930;2023-11-19T01:07:51;39.85;;;16.33;;
58137;SDS011;43955;47.362;18.930;2023-11-19T01:10:21;21.98;;;10.23;;
58137;SDS011;43955;47.362;18.930;2023-11-19T01:12:48;33.42;;;18.00;;
58137;SDS011;43955;47.362;18.930;2023-11-19T01:15:16;59.28;;;19.20;;
58137;SDS011;43955;47.362;18.930;2023-11-19T01:17:45;39.80;;;17.70;;
58137;SDS011;43955;47.362;18.930;2023-11-19T01:20:16;19.08;;;10.27;;
58137;SDS011;43955;47.362;18.930;2023-11-19T01:22:44;22.87;;;11.00;;
58137;SDS011;43955;47.362;18.930;2023-11-19T01:25:11;15.45;;;9.27;;
58137;SDS011;43955;47.362;18.930;2023-11-19T01:27:39;10.45;;;6.05;;
58137;SDS011;43955;47.362;18.930;2023-11-19T01:30:07;11.05;;;6.57;;
58137;SDS011;43955;47.362;18.930;2023-11-19T01:32:36;13.10;;;7.85;;
58137;SDS011;43955;47.362;18.930;2023-11-19T01:35:05;15.48;;;7.75;;
58137;SDS011;43955;47.362;18.930;2023-11-19T01:37:32;16.23;;;7.60;;
58137;SDS011;43955;47.362;18.930;2023-11-19T01:40:02;14.70;;;7.12;;
58137;SDS011;43955;47.362;18.930;2023-11-19T01:42:37;13.07;;;6.45;;
58137;SDS011;43955;47.362;18.930;2023-11-19T01:45:08;12.50;;;7.15;;
58137;SDS011;43955;47.362;18.930;2023-11-19T01:47:36;11.45;;;6.00;;
58137;SDS011;43955;47.362;18.930;2023-11-19T01:50:06;13.65;;;5.57;;
58137;SDS011;43955;47.362;18.930;2023-11-19T01:52:34;11.80;;;6.03;;
58137;SDS011;43955;47.362;18.930;2023-11-19T01:55:07;11.88;;;6.30;;
58137;SDS011;43955;47.362;18.930;2023-11-19T01:57:37;10.40;;;5.82;;
58137;SDS011;43955;47.362;18.930;2023-11-19T02:00:06;12.65;;;6.10;;
58137;SDS011;43955;47.362;18.930;2023-11-19T02:02:40;12.07;;;7.50;;
58137;SDS011;43955;47.362;18.930;2023-11-19T02:05:09;15.65;;;7.15;;
58137;SDS011;43955;47.362;18.930;2023-11-19T02:07:37;99.93;;;40.25;;
58137;SDS011;43955;47.362;18.930;2023-11-19T02:10:04;83.70;;;38.60;;
58137;SDS011;43955;47.362;18.930;2023-11-19T02:12:33;54.08;;;30.23;;
58137;SDS011;43955;47.362;18.930;2023-11-19T02:15:03;37.17;;;21.05;;
58137;SDS011;43955;47.362;18.930;2023-11-19T02:17:31;38.08;;;23.02;;
58137;SDS011;43955;47.362;18.930;2023-11-19T02:19:59;15.80;;;10.52;;
58137;SDS011;43955;47.362;18.930;2023-11-19T02:22:33;14.25;;;7.37;;
58137;SDS011;43955;47.362;18.930;2023-11-19T02:25:04;14.98;;;7.03;;
58137;SDS011;43955;47.362;18.930;2023-11-19T02:27:53;10.38;;;6.35;;
58137;SDS011;43955;47.362;18.930;2023-11-19T02:30:23;9.38;;;5.30;;
58137;SDS011;43955;47.362;18.930;2023-11-19T02:32:55;11.12;;;5.45;;
58137;SDS011;43955;47.362;18.930;2023-11-19T02:35:25;12.68;;;7.00;;
58137;SDS011;43955;47.362;18.930;2023-11-19T02:37:56;11.82;;;6.65;;
58137;SDS011;43955;47.362;18.930;2023-11-19T02:40:23;11.30;;;6.12;;
58137;SDS011;43955;47.362;18.930;2023-11-19T02:42:51;11.10;;;5.35;;
58137;SDS011;43955;47.362;18.930;2023-11-19T02:45:19;10.75;;;4.97;;
58137;SDS011;43955;47.362;18.930;2023-11-19T02:47:48;10.95;;;5.53;;
58137;SDS011;43955;47.362;18.930;2023-11-19T02:50:16;9.65;;;5.30;;
58137;SDS011;43955;47.362;18.930;2023-11-19T02:52:48;12.07;;;5.28;;
58137;SDS011;43955;47.362;18.930;2023-11-19T02:55:16;13.10;;;5.90;;
58137;SDS011;43955;47.362;18.930;2023-11-19T02:57:45;11.23;;;5.43;;
58137;SDS011;43955;47.362;18.930;2023-11-19T03:00:17;9.52;;;5.07;;
58137;SDS011;43955;47.362;18.930;2023-11-19T03:02:46;10.25;;;5.15;;
58137;SDS011;43955;47.362;18.930;2023-11-19T03:05:15;13.35;;;5.85;;
58137;SDS011;43955;47.362;18.930;2023-11-19T03:07:43;10.93;;;5.60;;
58137;SDS011;43955;47.362;18.930;2023-11-19T03:10:11;12.32;;;5.78;;
58137;SDS011;43955;47.362;18.930;2023-11-19T03:12:42;12.15;;;5.62;;
58137;SDS011;43955;47.362;18.930;2023-11-19T03:15:11;13.35;;;6.03;;
58137;SDS011;43955;47.362;18.930;2023-11-19T03:17:39;9.60;;;6.15;;
58137;SDS011;43955;47.362;18.930;2023-11-19T03:20:08;11.18;;;5.53;;
58137;SDS011;43955;47.362;18.930;2023-11-19T03:22:42;10.10;;;5.25;;
58137;SDS011;43955;47.362;18.930;2023-11-19T03:25:10;10.27;;;5.50;;
58137;SDS011;43955;47.362;18.930;2023-11-19T03:27:40;11.23;;;5.53;;
58137;SDS011;43955;47.362;18.930;2023-11-19T03:30:11;12.45;;;5.65;;
58137;SDS011;43955;47.362;18.930;2023-11-19T03:32:38;9.68;;;5.85;;
58137;SDS011;43955;47.362;18.930;2023-11-19T03:35:06;10.43;;;5.70;;
58137;SDS011;43955;47.362;18.930;2023-11-19T03:37:36;9.32;;;5.00;;
58137;SDS011;43955;47.362;18.930;2023-11-19T03:40:04;12.70;;;6.32;;
58137;SDS011;43955;47.362;18.930;2023-11-19T03:42:32;10.48;;;5.72;;
58137;SDS011;43955;47.362;18.930;2023-11-19T03:45:00;9.82;;;5.47;;
58137;SDS011;43955;47.362;18.930;2023-11-19T03:47:28;10.30;;;5.93;;
58137;SDS011;43955;47.362;18.930;2023-11-19T03:49:56;10.82;;;5.60;;
58137;SDS011;43955;47.362;18.930;2023-11-19T03:52:24;11.57;;;5.82;;
58137;SDS011;43955;47.362;18.930;2023-11-19T03:54:55;9.48;;;5.03;;
58137;SDS011;43955;47.362;18.930;2023-11-19T03:57:24;14.40;;;5.90;;
58137;SDS011;43955;47.362;18.930;2023-11-19T03:59:53;17.50;;;8.15;;
58137;SDS011;43955;47.362;18.930;2023-11-19T04:02:22;16.90;;;8.45;;
58137;SDS011;43955;47.362;18.930;2023-11-19T04:04:50;21.10;;;10.68;;
58137;SDS011;43955;47.362;18.930;2023-11-19T04:07:18;59.67;;;29.67;;
58137;SDS011;43955;47.362;18.930;2023-11-19T04:09:45;47.22;;;24.87;;
58137;SDS011;43955;47.362;18.930;2023-11-19T04:12:14;16.55;;;9.10;;
58137;SDS011;43955;47.362;18.930;2023-11-19T04:14:42;12.57;;;6.75;;
58137;SDS011;43955;47.362;18.930;2023-11-19T04:17:11;12.70;;;6.30;;
58137;SDS011;43955;47.362;18.930;2023-11-19T04:19:39;17.80;;;8.35;;
58137;SDS011;43955;47.362;18.930;2023-11-19T04:22:09;12.30;;;7.25;;
58137;SDS011;43955;47.362;18.930;2023-11-19T04:24:36;10.60;;;6.22;;
58137;SDS011;43955;47.362;18.930;2023-11-19T04:27:06;12.07;;;6.47;;
58137;SDS011;43955;47.362;18.930;2023-11-19T04:29:33;13.62;;;6.95;;
58137;SDS011;43955;47.362;18.930;2023-11-19T04:32:03;14.20;;;6.70;;
58137;SDS011;43955;47.362;18.930;2023-11-19T04:34:33;11.68;;;6.30;;
58137;SDS011;43955;47.362;18.930;2023-11-19T04:37:01;12.57;;;7.25;;
58137;SDS011;43955;47.362;18.930;2023-11-19T04:39:40;15.52;;;8.35;;
58137;SDS011;43955;47.362;18.930;2023-11-19T04:42:08;23.75;;;15.23;;
58137;SDS011;43955;47.362;18.930;2023-11-19T04:44:36;17.65;;;10.35;;
58137;SDS011;43955;47.362;18.930;2023-11-19T04:47:04;14.38;;;7.43;;
58137;SDS011;43955;47.362;18.930;2023-11-19T04:49:32;12.20;;;6.78;;
58137;SDS011;43955;47.362;18.930;2023-11-19T04:52:00;12.82;;;6.05;;
58137;SDS011;43955;47.362;18.930;2023-11-19T04:54:31;10.77;;;5.75;;
58137;SDS011;43955;47.362;18.930;2023-11-19T04:56:59;10.65;;;5.72;;
58137;SDS011;43955;47.362;18.930;2023-11-19T04:59:27;10.88;;;5.82;;
58137;SDS011;43955;47.362;18.930;2023-11-19T05:01:55;12.80;;;6.95;;
58137;SDS011;43955;47.362;18.930;2023-11-19T05:04:23;11.23;;;6.18;;
58137;SDS011;43955;47.362;18.930;2023-11-19T05:06:50;11.32;;;6.72;;
58137;SDS011;43955;47.362;18.930;2023-11-19T05:09:20;12.32;;;5.97;;
58137;SDS011;43955;47.362;18.930;2023-11-19T05:11:49;25.48;;;11.50;;
58137;SDS011;43955;47.362;18.930;2023-11-19T05:14:19;34.42;;;13.55;;
58137;SDS011;43955;47.362;18.930;2023-11-19T05:16:47;34.58;;;14.70;;
58137;SDS011;43955;47.362;18.930;2023-11-19T05:19:16;32.75;;;15.05;;
58137;SDS011;43955;47.362;18.930;2023-11-19T05:21:44;39.35;;;16.65;;
58137;SDS011;43955;47.362;18.930;2023-11-19T05:24:12;64.80;;;29.45;;
58137;SDS011;43955;47.362;18.930;2023-11-19T05:26:39;36.25;;;15.77;;
58137;SDS011;43955;47.362;18.930;2023-11-19T05:29:08;40.33;;;16.12;;
58137;SDS011;43955;47.362;18.930;2023-11-19T05:31:36;35.13;;;14.98;;
58137;SDS011;43955;47.362;18.930;2023-11-19T05:34:05;40.25;;;20.77;;
58137;SDS011;43955;47.362;18.930;2023-11-19T05:36:35;29.83;;;15.85;;
58137;SDS011;43955;47.362;18.930;2023-11-19T05:39:02;27.40;;;14.60;;
58137;SDS011;43955;47.362;18.930;2023-11-19T05:41:32;25.08;;;13.65;;
58137;SDS011;43955;47.362;18.930;2023-11-19T05:44:00;23.70;;;11.77;;
58137;SDS011;43955;47.362;18.930;2023-11-19T05:46:28;16.17;;;9.40;;
58137;SDS011;43955;47.362;18.930;2023-11-19T05:48:56;14.43;;;7.95;;
58137;SDS011;43955;47.362;18.930;2023-11-19T05:51:23;13.80;;;8.02;;
58137;SDS011;43955;47.362;18.930;2023-11-19T05:53:57;17.05;;;10.00;;
58137;SDS011;43955;47.362;18.930;2023-11-19T05:56:24;16.70;;;7.07;;
58137;SDS011;43955;47.362;18.930;2023-11-19T05:58:59;18.05;;;9.13;;
58137;SDS011;43955;47.362;18.930;2023-11-19T06:01:41;15.20;;;7.87;;
58137;SDS011;43955;47.362;18.930;2023-11-19T06:04:10;16.80;;;7.55;;
58137;SDS011;43955;47.362;18.930;2023-11-19T06:06:37;36.67;;;20.02;;
58137;SDS011;43955;47.362;18.930;2023-11-19T06:09:06;50.70;;;20.55;;
58137;SDS011;43955;47.362;18.930;2023-11-19T06:11:47;23.33;;;11.57;;
58137;SDS011;43955;47.362;18.930;2023-11-19T06:14:16;22.10;;;12.05;;
58137;SDS011;43955;47.362;18.930;2023-11-19T06:16:46;24.98;;;12.15;;
58137;SDS011;43955;47.362;18.930;2023-11-19T06:19:13;23.17;;;12.35;;
58137;SDS011;43955;47.362;18.930;2023-11-19T06:21:40;22.13;;;11.80;;
58137;SDS011;43955;47.362;18.930;2023-11-19T06:24:14;44.22;;;16.77;;
58137;SDS011;43955;47.362;18.930;2023-11-19T06:26:41;25.65;;;12.37;;
58137;SDS011;43955;47.362;18.930;2023-11-19T06:29:11;20.08;;;10.45;;
58137;SDS011;43955;47.362;18.930;2023-11-19T06:31:40;22.77;;;12.65;;
58137;SDS011;43955;47.362;18.930;2023-11-19T06:34:09;19.77;;;10.30;;
58137;SDS011;43955;47.362;18.930;2023-11-19T06:36:37;18.12;;;10.30;;
58137;SDS011;43955;47.362;18.930;2023-11-19T06:39:05;21.87;;;11.98;;
58137;SDS011;43955;47.362;18.930;2023-11-19T06:41:33;22.52;;;12.07;;
58137;SDS011;43955;47.362;18.930;2023-11-19T06:44:01;26.92;;;12.80;;
58137;SDS011;43955;47.362;18.930;2023-11-19T06:46:28;23.62;;;12.73;;
58137;SDS011;43955;47.362;18.930;2023-11-19T06:48:55;21.37;;;12.23;;
58137;SDS011;43955;47.362;18.930;2023-11-19T06:51:23;22.85;;;12.63;;
58137;SDS011;43955;47.362;18.930;2023-11-19T06:53:53;24.10;;;11.77;;
58137;SDS011;43955;47.362;18.930;2023-11-19T06:56:21;34.08;;;13.77;;
58137;SDS011;43955;47.362;18.930;2023-11-19T06:58:50;35.40;;;14.52;;
58137;SDS011;43955;47.362;18.930;2023-11-19T07:01:18;23.12;;;11.90;;
58137;SDS011;43955;47.362;18.930;2023-11-19T07:03:46;25.45;;;11.30;;
58137;SDS011;43955;47.362;18.930;2023-11-19T07:06:14;20.05;;;10.55;;
58137;SDS011;43955;47.362;18.930;2023-11-19T07:08:41;21.73;;;10.15;;
58137;SDS011;43955;47.362;18.930;2023-11-19T07:11:15;19.10;;;11.05;;
58137;SDS011;43955;47.362;18.930;2023-11-19T07:13:44;20.85;;;10.90;;
58137;SDS011;43955;47.362;18.930;2023-11-19T07:16:14;25.08;;;11.57;;
58137;SDS011;43955;47.362;18.930;2023-11-19T07:18:42;31.35;;;14.30;;
58137;SDS011;43955;47.362;18.930;2023-11-19T07:21:10;31.08;;;16.02;;
58137;SDS011;43955;47.362;18.930;2023-11-19T07:23:45;27.33;;;12.35;;
58137;SDS011;43955;47.362;18.930;2023-11-19T07:26:13;24.35;;;10.30;;
58137;SDS011;43955;47.362;18.930;2023-11-19T07:28:41;23.00;;;11.48;;
58137;SDS011;43955;47.362;18.930;2023-11-19T07:31:08;23.50;;;10.70;;
58137;SDS011;43955;47.362;18.930;2023-11-19T07:33:36;19.77;;;9.90;;
58137;SDS011;43955;47.362;18.930;2023-11-19T07:36:04;15.95;;;8.27;;
58137;SDS011;43955;47.362;18.930;2023-11-19T07:38:32;14.60;;;8.23;;
58137;SDS011;43955;47.362;18.930;2023-11-19T07:41:01;13.70;;;7.62;;
58137;SDS011;43955;47.362;18.930;2023-11-19T07:43:28;17.40;;;7.50;;
58137;SDS011;43955;47.362;18.930;2023-11-19T07:45:55;15.70;;;7.70;;
58137;SDS011;43955;47.362;18.930;2023-11-19T07:48:23;21.90;;;10.05;;
58137;SDS011;43955;47.362;18.930;2023-11-19T07:50:52;18.70;;;8.73;;
58137;SDS011;43955;47.362;18.930;2023-11-19T07:53:24;21.50;;;8.77;;
58137;SDS011;43955;47.362;18.930;2023-11-19T07:55:52;11.32;;;6.35;;
58137;SDS011;43955;47.362;18.930;2023-11-19T07:58:20;11.30;;;6.72;;
58137;SDS011;43955;47.362;18.930;2023-11-19T08:00:48;19.27;;;7.80;;
58137;SDS011;43955;47.362;18.930;2023-11-19T08:03:15;15.30;;;7.35;;
58137;SDS011;43955;47.362;18.930;2023-11-19T08:05:47;12.18;;;7.03;;
58137;SDS011;43955;47.362;18.930;2023-11-19T08:08:15;15.82;;;7.50;;
58137;SDS011;43955;47.362;18.930;2023-11-19T08:10:42;14.43;;;7.82;;
58137;SDS011;43955;47.362;18.930;2023-11-19T08:13:15;14.85;;;8.15;;
58137;SDS011;43955;47.362;18.930;2023-11-19T08:15:47;16.17;;;7.90;;
58137;SDS011;43955;47.362;18.930;2023-11-19T08:18:15;16.10;;;8.85;;
58137;SDS011;43955;47.362;18.930;2023-11-19T08:20:42;18.42;;;8.95;;
58137;SDS011;43955;47.362;18.930;2023-11-19T08:23:11;14.87;;;7.90;;
58137;SDS011;43955;47.362;18.930;2023-11-19T08:25:40;17.70;;;8.73;;
58137;SDS011;43955;47.362;18.930;2023-11-19T08:28:07;15.23;;;8.63;;
58137;SDS011;43955;47.362;18.930;2023-11-19T08:30:35;22.02;;;9.52;;
58137;SDS011;43955;47.362;18.930;2023-11-19T08:33:02;13.05;;;7.15;;
58137;SDS011;43955;47.362;18.930;2023-11-19T08:35:31;14.75;;;7.03;;
58137;SDS011;43955;47.362;18.930;2023-11-19T08:37:59;15.85;;;7.18;;
58137;SDS011;43955;47.362;18.930;2023-11-19T08:40:27;13.30;;;7.28;;
58137;SDS011;43955;47.362;18.930;2023-11-19T08:42:56;13.82;;;6.45;;
58137;SDS011;43955;47.362;18.930;2023-11-19T08:45:24;15.52;;;6.70;;
58137;SDS011;43955;47.362;18.930;2023-11-19T08:47:52;14.05;;;6.72;;
58137;SDS011;43955;47.362;18.930;2023-11-19T08:50:22;11.02;;;5.95;;
58137;SDS011;43955;47.362;18.930;2023-11-19T08:52:51;15.43;;;7.37;;
58137;SDS011;43955;47.362;18.930;2023-11-19T08:55:18;13.02;;;6.97;;
58137;SDS011;43955;47.362;18.930;2023-11-19T08:57:47;13.15;;;7.10;;
58137;SDS011;43955;47.362;18.930;2023-11-19T09:00:15;13.95;;;7.18;;
58137;SDS011;43955;47.362;18.930;2023-11-19T09:02:43;12.40;;;7.00;;
58137;SDS011;43955;47.362;18.930;2023-11-19T09:05:11;19.05;;;7.78;;
58137;SDS011;43955;47.362;18.930;2023-11-19T09:07:40;15.93;;;7.05;;
58137;SDS011;43955;47.362;18.930;2023-11-19T09:10:08;14.80;;;7.47;;
58137;SDS011;43955;47.362;18.930;2023-11-19T09:12:35;12.70;;;6.72;;
58137;SDS011;43955;47.362;18.930;2023-11-19T09:15:03;12.75;;;6.20;;
58137;SDS011;43955;47.362;18.930;2023-11-19T09:17:31;11.48;;;6.32;;
58137;SDS011;43955;47.362;18.930;2023-11-19T09:19:59;15.93;;;6.95;;
58137;SDS011;43955;47.362;18.930;2023-11-19T09:22:28;14.45;;;6.90;;
58137;SDS011;43955;47.362;18.930;2023-11-19T09:24:56;19.52;;;7.82;;
58137;SDS011;43955;47.362;18.930;2023-11-19T09:27:33;14.23;;;7.05;;
58137;SDS011;43955;47.362;18.930;2023-11-19T09:30:01;12.77;;;7.07;;
58137;SDS011;43955;47.362;18.930;2023-11-19T09:32:34;12.57;;;6.03;;
58137;SDS011;43955;47.362;18.930;2023-11-19T09:35:02;11.68;;;6.75;;
58137;SDS011;43955;47.362;18.930;2023-11-19T09:37:30;12.43;;;6.15;;
58137;SDS011;43955;47.362;18.930;2023-11-19T09:39:58;13.50;;;7.93;;
58137;SDS011;43955;47.362;18.930;2023-11-19T09:42:28;13.98;;;7.50;;
58137;SDS011;43955;47.362;18.930;2023-11-19T09:44:55;14.02;;;6.68;;
58137;SDS011;43955;47.362;18.930;2023-11-19T09:47:23;12.52;;;7.37;;
58137;SDS011;43955;47.362;18.930;2023-11-19T09:49:53;12.20;;;6.97;;
58137;SDS011;43955;47.362;18.930;2023-11-19T09:52:26;15.43;;;7.60;;
58137;SDS011;43955;47.362;18.930;2023-11-19T09:54:53;12.25;;;6.35;;
58137;SDS011;43955;47.362;18.930;2023-11-19T09:57:20;17.33;;;8.40;;
58137;SDS011;43955;47.362;18.930;2023-11-19T09:59:48;15.73;;;8.23;;
58137;SDS011;43955;47.362;18.930;2023-11-19T10:02:17;15.35;;;7.30;;
58137;SDS011;43955;47.362;18.930;2023-11-19T10:04:48;11.02;;;7.05;;
58137;SDS011;43955;47.362;18.930;2023-11-19T10:07:17;18.98;;;7.00;;
58137;SDS011;43955;47.362;18.930;2023-11-19T10:09:46;13.43;;;6.75;;
58137;SDS011;43955;47.362;18.930;2023-11-19T10:12:14;14.43;;;7.30;;
58137;SDS011;43955;47.362;18.930;2023-11-19T10:14:43;12.37;;;6.87;;
58137;SDS011;43955;47.362;18.930;2023-11-19T10:17:11;14.45;;;8.02;;
58137;SDS011;43955;47.362;18.930;2023-11-19T10:19:40;16.92;;;8.57;;
58137;SDS011;43955;47.362;18.930;2023-11-19T10:22:08;16.12;;;7.93;;
58137;SDS011;43955;47.362;18.930;2023-11-19T10:24:36;21.33;;;8.55;;
58137;SDS011;43955;47.362;18.930;2023-11-19T10:27:11;15.25;;;7.72;;
58137;SDS011;43955;47.362;18.930;2023-11-19T10:29:40;15.32;;;7.55;;
58137;SDS011;43955;47.362;18.930;2023-11-19T10:32:07;13.35;;;7.50;;
58137;SDS011;43955;47.362;18.930;2023-11-19T10:35:04;13.80;;;7.03;;
58137;SDS011;43955;47.362;18.930;2023-11-19T10:37:33;15.27;;;7.03;;
58137;SDS011;43955;47.362;18.930;2023-11-19T10:40:04;15.68;;;7.37;;
58137;SDS011;43955;47.362;18.930;2023-11-19T10:42:41;14.80;;;7.43;;
58137;SDS011;43955;47.362;18.930;2023-11-19T10:45:26;13.62;;;6.75;;
58137;SDS011;43955;47.362;18.930;2023-11-19T10:47:54;15.02;;;7.05;;
58137;SDS011;43955;47.362;18.930;2023-11-19T10:50:23;12.30;;;6.70;;
58137;SDS011;43955;47.362;18.930;2023-11-19T10:52:54;11.35;;;6.57;;
58137;SDS011;43955;47.362;18.930;2023-11-19T10:55:26;11.02;;;6.53;;
58137;SDS011;43955;47.362;18.930;2023-11-19T10:58:15;14.30;;;7.28;;
58137;SDS011;43955;47.362;18.930;2023-11-19T11:00:45;14.00;;;7.62;;
58137;SDS011;43955;47.362;18.930;2023-11-19T11:03:17;14.50;;;7.97;;
58137;SDS011;43955;47.362;18.930;2023-11-19T11:05:47;13.70;;;7.72;;
58137;SDS011;43955;47.362;18.930;2023-11-19T11:08:15;15.15;;;8.63;;
58137;SDS011;43955;47.362;18.930;2023-11-19T11:10:48;14.60;;;8.57;;
58137;SDS011;43955;47.362;18.930;2023-11-19T11:13:24;16.00;;;8.13;;
58137;SDS011;43955;47.362;18.930;2023-11-19T11:15:56;14.90;;;7.82;;
58137;SDS011;43955;47.362;18.930;2023-11-19T11:18:27;15.80;;;8.77;;
58137;SDS011;43955;47.362;18.930;2023-11-19T11:21:11;17.70;;;9.48;;
58137;SDS011;43955;47.362;18.930;2023-11-19T11:23:47;14.30;;;7.97;;
58137;SDS011;43955;47.362;18.930;2023-11-19T11:39:40;15.93;;;8.98;;
58137;SDS011;43955;47.362;18.930;2023-11-19T11:45:02;18.48;;;9.98;;
58137;SDS011;43955;47.362;18.930;2023-11-19T11:50:20;16.60;;;8.88;;
58137;SDS011;43955;47.362;18.930;2023-11-19T11:55:37;15.60;;;9.02;;
58137;SDS011;43955;47.362;18.930;2023-11-19T12:00:48;20.27;;;9.88;;
58137;SDS011;43955;47.362;18.930;2023-11-19T12:03:16;19.05;;;9.57;;
58137;SDS011;43955;47.362;18.930;2023-11-19T12:05:47;14.20;;;7.45;;
58137;SDS011;43955;47.362;18.930;2023-11-19T12:08:16;13.52;;;7.82;;
58137;SDS011;43955;47.362;18.930;2023-11-19T12:10:54;15.40;;;8.45;;
58137;SDS011;43955;47.362;18.930;2023-11-19T12:13:42;12.85;;;7.70;;
58137;SDS011;43955;47.362;18.930;2023-11-19T12:16:13;16.65;;;9.25;;
58137;SDS011;43955;47.362;18.930;2023-11-19T12:18:42;14.93;;;8.88;;
58137;SDS011;43955;47.362;18.930;2023-11-19T12:21:11;16.20;;;8.02;;
58137;SDS011;43955;47.362;18.930;2023-11-19T12:23:44;11.23;;;7.45;;
58137;SDS011;43955;47.362;18.930;2023-11-19T12:26:30;16.43;;;7.17;;
58137;SDS011;43955;47.362;18.930;2023-11-19T12:29:02;13.27;;;6.93;;
58137;SDS011;43955;47.362;18.930;2023-11-19T12:31:35;15.17;;;7.67;;
58137;SDS011;43955;47.362;18.930;2023-11-19T12:34:07;12.80;;;7.47;;
58137;SDS011;43955;47.362;18.930;2023-11-19T12:36:38;12.75;;;7.30;;
58137;SDS011;43955;47.362;18.930;2023-11-19T12:39:06;11.73;;;6.65;;
58137;SDS011;43955;47.362;18.930;2023-11-19T12:41:48;11.95;;;6.43;;
58137;SDS011;43955;47.362;18.930;2023-11-19T12:44:16;13.38;;;7.30;;
58137;SDS011;43955;47.362;18.930;2023-11-19T12:46:43;15.50;;;8.30;;
58137;SDS011;43955;47.362;18.930;2023-11-19T12:49:11;12.23;;;6.87;;
58137;SDS011;43955;47.362;18.930;2023-11-19T12:51:39;12.27;;;6.93;;
58137;SDS011;43955;47.362;18.930;2023-11-19T12:54:07;14.93;;;7.60;;
58137;SDS011;43955;47.362;18.930;2023-11-19T12:56:35;16.90;;;8.13;;
58137;SDS011;43955;47.362;18.930;2023-11-19T12:59:11;14.25;;;7.65;;
58137;SDS011;43955;47.362;18.930;2023-11-19T13:01:39;11.40;;;7.18;;
58137;SDS011;43955;47.362;18.930;2023-11-19T13:04:18;14.02;;;6.85;;
58137;SDS011;43955;47.362;18.930;2023-11-19T13:06:46;14.75;;;7.65;;
58137;SDS011;43955;47.362;18.930;2023-11-19T13:09:28;17.57;;;9.67;;
58137;SDS011;43955;47.362;18.930;2023-11-19T13:11:56;17.23;;;8.43;;
58137;SDS011;43955;47.362;18.930;2023-11-19T13:14:23;15.35;;;8.95;;
58137;SDS011;43955;47.362;18.930;2023-11-19T13:16:50;21.20;;;7.87;;
58137;SDS011;43955;47.362;18.930;2023-11-19T13:19:20;49.75;;;9.75;;
58137;SDS011;43955;47.362;18.930;2023-11-19T13:21:50;21.10;;;10.43;;
58137;SDS011;43955;47.362;18.930;2023-11-19T13:24:19;29.12;;;9.90;;
58137;SDS011;43955;47.362;18.930;2023-11-19T13:26:47;17.42;;;8.38;;
58137;SDS011;43955;47.362;18.930;2023-11-19T13:29:15;21.40;;;9.07;;
58137;SDS011;43955;47.362;18.930;2023-11-19T13:31:43;17.25;;;8.57;;
58137;SDS011;43955;47.362;18.930;2023-11-19T13:34:12;15.82;;;8.02;;
58137;SDS011;43955;47.362;18.930;2023-11-19T13:36:41;25.95;;;10.63;;
58137;SDS011;43955;47.362;18.930;2023-11-19T13:39:12;14.18;;;7.45;;
58137;SDS011;43955;47.362;18.930;2023-11-19T13:41:40;20.12;;;9.20;;
58137;SDS011;43955;47.362;18.930;2023-11-19T13:44:08;22.10;;;9.10;;
58137;SDS011;43955;47.362;18.930;2023-11-19T13:46:36;17.40;;;8.10;;
58137;SDS011;43955;47.362;18.930;2023-11-19T13:49:03;15.15;;;8.30;;
58137;SDS011;43955;47.362;18.930;2023-11-19T13:51:33;24.52;;;11.45;;
58137;SDS011;43955;47.362;18.930;2023-11-19T13:54:00;28.23;;;13.60;;
58137;SDS011;43955;47.362;18.930;2023-11-19T13:56:28;22.98;;;13.62;;
58137;SDS011;43955;47.362;18.930;2023-11-19T13:58:56;26.52;;;13.62;;
58137;SDS011;43955;47.362;18.930;2023-11-19T14:01:25;23.17;;;13.65;;
58137;SDS011;43955;47.362;18.930;2023-11-19T14:03:53;33.10;;;16.15;;
58137;SDS011;43955;47.362;18.930;2023-11-19T14:06:21;30.20;;;15.13;;
58137;SDS011;43955;47.362;18.930;2023-11-19T14:08:49;27.27;;;12.80;;
58137;SDS011;43955;47.362;18.930;2023-11-19T14:11:18;21.62;;;11.07;;
58137;SDS011;43955;47.362;18.930;2023-11-19T14:13:46;20.75;;;11.50;;
58137;SDS011;43955;47.362;18.930;2023-11-19T14:16:14;22.25;;;12.20;;
58137;SDS011;43955;47.362;18.930;2023-11-19T14:18:43;22.27;;;13.05;;
58137;SDS011;43955;47.362;18.930;2023-11-19T14:21:10;28.77;;;13.80;;
58137;SDS011;43955;47.362;18.930;2023-11-19T14:23:38;27.15;;;14.18;;
58137;SDS011;43955;47.362;18.930;2023-11-19T14:26:07;36.85;;;17.35;;
58137;SDS011;43955;47.362;18.930;2023-11-19T14:28:35;31.90;;;16.75;;
58137;SDS011;43955;47.362;18.930;2023-11-19T14:31:21;56.67;;;24.20;;
58137;SDS011;43955;47.362;18.930;2023-11-19T14:33:48;57.25;;;25.25;;
58137;SDS011;43955;47.362;18.930;2023-11-19T14:36:17;61.15;;;27.05;;
58137;SDS011;43955;47.362;18.930;2023-11-19T14:38:45;57.33;;;25.92;;
58137;SDS011;43955;47.362;18.930;2023-11-19T14:41:12;31.50;;;16.40;;
58137;SDS011;43955;47.362;18.930;2023-11-19T14:43:40;20.30;;;9.80;;
58137;SDS011;43955;47.362;18.930;2023-11-19T14:46:07;23.83;;;12.55;;
58137;SDS011;43955;47.362;18.930;2023-11-19T14:48:35;55.78;;;38.47;;
58137;SDS011;43955;47.362;18.930;2023-11-19T14:51:03;37.55;;;24.80;;
58137;SDS011;43955;47.362;18.930;2023-11-19T14:53:34;52.70;;;26.02;;
58137;SDS011;43955;47.362;18.930;2023-11-19T14:56:01;46.65;;;28.30;;